Time;durP1;ratioP1;P1;durP2;ratioP2;P2;SDS_P1;SDS_P2;PMS_P1;PMS_P2;Temp;Humidity;BMP_temperature;BMP_pressure;BME280_temperature;BME280_humidity;BME280_pressure;Samples;Min_cycle;Max_cycle;Signal;HPM_P1;HPM_P2
2023/09/24 00:00:59;;;;;;;4.88;1.80;;;11.50;99.90;;;;;;4957642;29;20468;-84
2023/09/24 00:03:26;;;;;;;3.67;1.70;;;11.50;99.90;;;;;;4954598;29;20512;-84
2023/09/24 00:05:53;;;;;;;7.55;1.70;;;11.40;99.90;;;;;;4947408;29;20460;-84
2023/09/24 00:08:20;;;;;;;7.30;1.85;;;11.40;99.90;;;;;;4957375;29;20039;-84
2023/09/24 00:10:50;;;;;;;8.05;1.83;;;11.40;99.90;;;;;;4969890;29;20040;-83
2023/09/24 00:13:21;;;;;;;4.82;1.77;;;11.30;99.90;;;;;;4938001;29;20044;-84
2023/09/24 00:15:51;;;;;;;11.63;1.85;;;11.20;99.90;;;;;;4949298;29;20039;-84
2023/09/24 00:18:19;;;;;;;4.53;1.83;;;11.30;99.90;;;;;;4939278;29;20455;-84
2023/09/24 00:20:46;;;;;;;3.97;1.55;;;11.30;99.90;;;;;;4947644;29;20039;-83
2023/09/24 00:23:16;;;;;;;6.07;1.80;;;11.30;99.90;;;;;;4944005;29;20560;-84
2023/09/24 00:25:44;;;;;;;8.88;1.67;;;11.30;99.90;;;;;;4956904;29;20404;-84
2023/09/24 00:28:11;;;;;;;5.60;1.65;;;11.40;99.90;;;;;;4972520;29;20062;-83
2023/09/24 00:30:38;;;;;;;6.03;1.50;;;11.40;99.90;;;;;;4947549;29;20043;-84
2023/09/24 00:33:04;;;;;;;6.15;1.75;;;11.50;99.90;;;;;;4950834;29;20046;-84
2023/09/24 00:35:31;;;;;;;4.57;1.60;;;11.50;99.90;;;;;;4944385;29;20047;-84
2023/09/24 00:37:58;;;;;;;3.72;1.55;;;11.50;99.90;;;;;;4954341;29;20099;-83
2023/09/24 00:40:26;;;;;;;10.95;2.05;;;11.60;99.90;;;;;;4946011;29;20039;-84
2023/09/24 00:42:53;;;;;;;5.50;1.70;;;11.60;99.90;;;;;;4965764;29;20051;-84
2023/09/24 00:45:21;;;;;;;6.30;1.60;;;11.60;99.90;;;;;;4946010;29;20076;-84
2023/09/24 00:47:49;;;;;;;6.93;1.42;;;11.60;99.90;;;;;;4943257;29;20043;-84
2023/09/24 00:50:15;;;;;;;7.90;1.60;;;11.60;99.90;;;;;;4944150;29;20051;-85
2023/09/24 00:52:44;;;;;;;5.20;1.80;;;11.70;99.90;;;;;;4972340;29;20492;-84
2023/09/24 00:55:13;;;;;;;3.33;1.52;;;11.60;99.90;;;;;;4968945;29;20103;-84
2023/09/24 00:57:41;;;;;;;3.65;1.60;;;11.60;99.90;;;;;;4960461;29;20102;-83
2023/09/24 01:00:11;;;;;;;6.50;2.17;;;11.60;99.90;;;;;;4943742;29;20088;-83
2023/09/24 01:02:39;;;;;;;4.70;1.85;;;11.50;99.90;;;;;;4947776;29;20051;-84
2023/09/24 01:05:10;;;;;;;6.03;2.00;;;11.50;99.90;;;;;;4949943;29;20130;-84
2023/09/24 01:07:37;;;;;;;3.38;1.52;;;11.50;99.90;;;;;;4936860;29;20169;-84
2023/09/24 01:10:07;;;;;;;6.53;1.90;;;11.40;99.90;;;;;;4949732;29;20044;-83
2023/09/24 01:12:33;;;;;;;4.93;1.60;;;11.40;99.90;;;;;;4948300;29;20107;-84
2023/09/24 01:15:00;;;;;;;5.90;1.67;;;11.50;99.90;;;;;;4943856;29;20047;-84
2023/09/24 01:17:27;;;;;;;5.00;1.50;;;11.40;99.90;;;;;;4956488;29;20039;-83
2023/09/24 01:19:55;;;;;;;7.45;1.80;;;11.30;99.90;;;;;;4943479;29;20518;-84
2023/09/24 01:22:21;;;;;;;5.07;1.98;;;11.30;99.90;;;;;;4950662;29;20035;-84
2023/09/24 01:24:48;;;;;;;5.30;1.65;;;11.40;99.90;;;;;;4953692;29;20047;-84
2023/09/24 01:27:15;;;;;;;2.78;1.48;;;11.30;99.90;;;;;;4942772;29;20090;-84
2023/09/24 01:29:42;;;;;;;4.82;1.67;;;11.30;99.90;;;;;;4952164;29;20070;-84
2023/09/24 01:32:09;;;;;;;4.15;1.80;;;11.30;99.90;;;;;;4946568;29;20412;-84
2023/09/24 01:34:35;;;;;;;9.07;2.03;;;11.30;99.90;;;;;;4952009;29;20047;-84
2023/09/24 01:37:08;;;;;;;3.75;1.70;;;11.20;99.90;;;;;;4955907;29;20091;-84
2023/09/24 01:39:36;;;;;;;7.78;2.22;;;11.20;99.90;;;;;;4943405;29;20043;-83
2023/09/24 01:42:03;;;;;;;5.80;1.80;;;11.20;99.90;;;;;;4956009;28;20043;-84
2023/09/24 01:44:34;;;;;;;7.38;2.08;;;11.20;99.90;;;;;;4937751;29;20476;-84
2023/09/24 01:47:03;;;;;;;8.85;2.20;;;11.10;99.90;;;;;;4947194;29;20040;-84
2023/09/24 01:49:31;;;;;;;5.28;1.90;;;11.10;99.90;;;;;;4943339;29;20073;-84
2023/09/24 01:55:40;;;;;;;5.60;2.10;;;10.70;99.90;;;;;;4988708;29;20078;-84
2023/09/24 01:58:08;;;;;;;7.22;2.17;;;11.00;99.90;;;;;;4944538;29;20097;-84
2023/09/24 02:00:36;;;;;;;4.00;1.90;;;11.00;99.90;;;;;;4966902;29;20067;-84
2023/09/24 02:03:07;;;;;;;6.55;2.30;;;11.00;99.90;;;;;;4967466;29;20130;-84
2023/09/24 02:05:35;;;;;;;5.70;2.22;;;11.00;99.90;;;;;;4952547;29;20122;-84
2023/09/24 02:08:06;;;;;;;5.78;2.10;;;11.00;99.90;;;;;;4951350;29;20091;-83
2023/09/24 02:10:33;;;;;;;4.53;2.00;;;11.00;99.90;;;;;;4959509;29;20039;-84
2023/09/24 02:13:00;;;;;;;4.78;2.08;;;10.90;99.90;;;;;;4957695;29;20046;-84
2023/09/24 02:15:27;;;;;;;4.07;2.10;;;10.90;99.90;;;;;;4949127;29;20043;-84
2023/09/24 02:17:54;;;;;;;5.88;2.03;;;10.90;99.90;;;;;;4959124;29;20095;-84
2023/09/24 02:20:25;;;;;;;5.03;2.13;;;10.80;99.90;;;;;;4959081;29;20456;-84
2023/09/24 02:22:57;;;;;;;5.70;2.08;;;10.80;99.90;;;;;;4950679;29;20054;-84
2023/09/24 02:25:25;;;;;;;4.97;2.08;;;10.80;99.90;;;;;;4978722;29;20495;-84
2023/09/24 02:27:53;;;;;;;10.45;2.30;;;10.80;99.90;;;;;;4946761;29;20457;-84
2023/09/24 02:30:21;;;;;;;4.97;2.30;;;10.70;99.90;;;;;;4958939;29;20098;-83
2023/09/24 02:32:48;;;;;;;4.20;2.10;;;10.70;99.90;;;;;;4944709;29;20050;-84
2023/09/24 02:35:15;;;;;;;5.38;2.00;;;10.60;99.90;;;;;;4958159;29;20126;-84
2023/09/24 02:37:47;;;;;;;4.28;1.85;;;10.60;99.90;;;;;;4953884;29;20115;-85
2023/09/24 02:40:26;;;;;;;7.32;2.25;;;10.50;99.90;;;;;;4956361;29;20545;-84
2023/09/24 02:42:57;;;;;;;8.50;2.20;;;10.50;99.90;;;;;;4939992;29;20095;-84
2023/09/24 02:45:26;;;;;;;4.53;2.05;;;10.50;99.90;;;;;;4952286;29;20132;-84
2023/09/24 02:47:53;;;;;;;6.13;2.08;;;10.40;99.90;;;;;;4952011;29;20066;-84
2023/09/24 02:50:23;;;;;;;4.28;2.00;;;10.40;99.90;;;;;;4946838;29;20077;-84
2023/09/24 02:52:54;;;;;;;4.97;1.90;;;10.40;99.90;;;;;;4958505;29;20047;-84
2023/09/24 02:55:22;;;;;;;5.38;2.00;;;10.40;99.90;;;;;;4950433;29;20044;-84
2023/09/24 02:57:50;;;;;;;4.88;2.20;;;10.30;99.90;;;;;;4942091;29;20082;-84
2023/09/24 03:00:19;;;;;;;7.35;2.28;;;10.30;99.90;;;;;;4958450;29;20046;-84
2023/09/24 03:02:49;;;;;;;4.70;2.33;;;10.30;99.90;;;;;;4958145;29;20043;-84
2023/09/24 03:05:24;;;;;;;7.25;2.05;;;10.30;99.90;;;;;;4948152;29;20040;-84
2023/09/24 03:07:52;;;;;;;6.70;2.10;;;10.20;99.90;;;;;;4969926;29;20051;-84
2023/09/24 03:10:19;;;;;;;4.78;2.30;;;10.20;99.90;;;;;;4946563;29;20087;-83
2023/09/24 03:12:47;;;;;;;9.05;2.20;;;10.20;99.90;;;;;;4945643;29;20051;-84
2023/09/24 03:15:14;;;;;;;4.20;2.40;;;10.20;99.90;;;;;;4958314;29;20122;-84
2023/09/24 03:17:43;;;;;;;6.82;2.30;;;10.20;99.90;;;;;;4939122;29;20042;-84
2023/09/24 03:20:19;;;;;;;4.75;2.50;;;10.60;99.90;;;;;;4950858;29;20044;-84
2023/09/24 03:22:48;;;;;;;6.22;2.40;;;10.10;99.90;;;;;;4952971;29;20505;-84
2023/09/24 03:25:24;;;;;;;4.70;2.30;;;10.10;99.90;;;;;;4958222;29;20043;-84
2023/09/24 03:27:53;;;;;;;7.00;2.55;;;10.10;99.90;;;;;;4958186;29;20099;-84
2023/09/24 03:30:20;;;;;;;5.13;2.22;;;10.10;99.90;;;;;;4950656;29;20043;-84
2023/09/24 03:32:49;;;;;;;12.82;2.53;;;10.10;99.90;;;;;;4951337;29;20035;-84
2023/09/24 03:53:21;;;;;;;7.82;2.85;;;10.20;99.90;;;;;;5014367;28;20105;-84
2023/09/24 03:55:48;;;;;;;10.65;3.38;;;10.20;99.90;;;;;;4993921;28;20042;-84
2023/09/24 03:58:15;;;;;;;6.60;3.10;;;10.30;99.90;;;;;;4992969;28;20105;-84
2023/09/24 04:04:00;;;;;;;16.10;3.17;;;10.30;99.90;;;;;;5013840;28;20142;-84
2023/09/24 04:07:38;;;;;;;11.45;3.15;;;10.40;99.90;;;;;;4936919;29;20048;-84
2023/09/24 04:10:08;;;;;;;12.70;3.05;;;10.00;99.90;;;;;;4913769;29;20829;-84
2023/09/24 04:12:35;;;;;;;15.98;3.40;;;10.40;99.90;;;;;;4916987;29;20048;-84
2023/09/24 04:15:18;;;;;;;17.33;3.53;;;10.60;99.90;;;;;;4925042;29;20772;-84
2023/09/24 04:17:48;;;;;;;7.22;3.20;;;10.40;99.90;;;;;;4911032;29;20775;-84
2023/09/24 04:31:54;;;;;;;8.77;3.67;;;10.30;99.90;;;;;;4819277;30;20047;-84
2023/09/24 04:34:21;;;;;;;17.77;3.47;;;10.30;99.90;;;;;;4804164;30;20582;-84
2023/09/24 04:36:50;;;;;;;8.25;3.13;;;10.30;99.90;;;;;;4804222;30;20067;-84
2023/09/24 04:39:18;;;;;;;10.65;3.60;;;10.30;99.90;;;;;;4804336;30;20478;-84
2023/09/24 04:41:44;;;;;;;7.47;3.45;;;10.30;99.90;;;;;;4819207;30;20059;-84
2023/09/24 05:06:21;;;;;;;8.90;4.95;;;10.30;99.90;;;;;;524107;26;20361;-84
2023/09/24 05:08:48;;;;;;;7.53;5.03;;;10.40;99.90;;;;;;4996090;28;20401;-84
2023/09/24 05:11:15;;;;;;;8.32;5.00;;;10.40;99.90;;;;;;4972180;28;20503;-84
2023/09/24 05:13:42;;;;;;;10.05;5.00;;;10.30;99.90;;;;;;4990306;28;20122;-84
2023/09/24 05:16:09;;;;;;;10.00;4.95;;;10.30;99.90;;;;;;4977206;28;20042;-84
2023/09/24 05:18:36;;;;;;;9.35;5.20;;;10.30;99.90;;;;;;4974780;28;20440;-84
2023/09/24 05:21:03;;;;;;;8.50;5.20;;;10.40;99.90;;;;;;4975200;28;20043;-85
2023/09/24 05:23:30;;;;;;;17.20;5.88;;;10.40;99.90;;;;;;4961866;28;20490;-84
2023/09/24 05:26:02;;;;;;;8.80;5.50;;;10.30;99.90;;;;;;4975358;28;20031;-84
2023/09/24 05:29:17;;;;;;;15.93;5.40;;;10.90;99.90;;;;;;4974867;28;20090;-84
2023/09/24 05:31:53;;;;;;;11.30;5.88;;;10.40;99.90;;;;;;4951717;29;20035;-84
2023/09/24 05:38:15;;;;;;;10.23;5.88;;;10.40;99.90;;;;;;4970465;29;20045;-84
2023/09/24 05:41:10;;;;;;;12.32;6.63;;;9.80;99.90;;;;;;4957668;29;20095;-84
2023/09/24 05:47:19;;;;;;;11.30;6.32;;;11.00;99.90;;;;;;4955858;29;19999;-84
2023/09/24 05:49:45;;;;;;;10.02;6.07;;;10.50;99.90;;;;;;4917197;29;20047;-89
2023/09/24 05:52:23;;;;;;;12.82;6.70;;;10.50;99.90;;;;;;4930221;29;20056;-88
2023/09/24 05:55:11;;;;;;;10.10;6.05;;;10.50;99.90;;;;;;4933444;29;20055;-88
2023/09/24 05:57:38;;;;;;;11.10;6.10;;;10.10;99.90;;;;;;4933427;29;20048;-88
2023/09/24 06:00:38;;;;;;;11.38;6.47;;;10.50;99.90;;;;;;4917744;29;20048;-88
2023/09/24 06:03:28;;;;;;;16.00;6.40;;;10.10;99.90;;;;;;4933439;29;20127;-88
2023/09/24 06:05:55;;;;;;;11.50;6.55;;;10.50;99.90;;;;;;4931244;29;20055;-88
2023/09/24 06:08:22;;;;;;;9.65;6.82;;;10.60;99.90;;;;;;4956321;29;20055;-87
2023/09/24 06:11:08;;;;;;;13.05;6.97;;;10.60;99.90;;;;;;4956012;29;20134;-88
2023/09/24 06:13:55;;;;;;;12.93;6.43;;;10.60;99.90;;;;;;4951718;29;20039;-88
2023/09/24 06:16:36;;;;;;;15.02;6.80;;;11.20;99.90;;;;;;4956783;29;20076;-89
2023/09/24 06:19:08;;;;;;;12.27;6.72;;;10.60;99.90;;;;;;4956619;29;20041;-88
2023/09/24 06:21:42;;;;;;;10.55;6.47;;;10.60;99.90;;;;;;4957761;28;20061;-88
2023/09/24 06:27:30;;;;;;;12.43;7.30;;;10.70;99.90;;;;;;4948378;29;20046;-89
2023/09/24 06:30:08;;;;;;;15.05;7.05;;;10.70;99.90;;;;;;4922594;29;20044;-87
2023/09/24 06:32:47;;;;;;;13.65;7.00;;;10.70;99.90;;;;;;4926088;29;20864;-88
2023/09/24 06:35:14;;;;;;;12.52;7.45;;;10.80;99.90;;;;;;4916928;29;20123;-88
2023/09/24 06:37:41;;;;;;;12.27;7.13;;;10.70;99.90;;;;;;4932865;29;20127;-88
2023/09/24 06:40:11;;;;;;;12.45;6.68;;;10.80;99.90;;;;;;4932906;29;20104;-88
2023/09/24 06:42:37;;;;;;;10.18;6.65;;;10.80;99.90;;;;;;4916881;29;20075;-88
2023/09/24 06:45:08;;;;;;;13.98;7.43;;;10.80;99.90;;;;;;4932744;29;20098;-88
2023/09/24 06:47:35;;;;;;;12.55;6.75;;;10.80;99.90;;;;;;4917941;29;20044;-88
2023/09/24 06:50:06;;;;;;;12.63;6.50;;;10.80;99.90;;;;;;4936797;29;20155;-87
2023/09/24 06:52:32;;;;;;;13.77;7.13;;;10.90;99.90;;;;;;4918966;29;20488;-88
2023/09/24 06:55:00;;;;;;;15.65;6.43;;;11.00;99.90;;;;;;4918440;29;20084;-88
2023/09/24 06:57:26;;;;;;;12.98;7.10;;;10.90;99.90;;;;;;4920866;29;20512;-89
2023/09/24 06:59:53;;;;;;;11.57;6.60;;;11.00;99.90;;;;;;4920919;29;20047;-88
2023/09/24 07:02:20;;;;;;;14.60;6.75;;;11.00;99.90;;;;;;4917941;29;20044;-84
2023/09/24 07:04:48;;;;;;;11.55;6.55;;;11.00;99.90;;;;;;4958519;28;20082;-85
2023/09/24 07:07:15;;;;;;;11.07;6.20;;;11.10;99.90;;;;;;4965486;29;20055;-86
2023/09/24 07:09:41;;;;;;;12.38;6.88;;;11.20;99.90;;;;;;4976521;28;20043;-85
2023/09/24 07:12:08;;;;;;;9.73;6.20;;;11.20;99.90;;;;;;4965840;29;20043;-85
2023/09/24 07:14:38;;;;;;;11.45;5.93;;;11.20;99.90;;;;;;4970392;28;20146;-86
2023/09/24 07:17:45;;;;;;;12.68;6.00;;;11.30;99.90;;;;;;4958072;28;20126;-87
2023/09/24 07:20:48;;;;;;;11.13;5.85;;;11.30;99.90;;;;;;4971444;28;20039;-85
2023/09/24 07:23:15;;;;;;;11.73;6.30;;;11.50;99.90;;;;;;4951632;28;20039;-85
2023/09/24 07:25:42;;;;;;;10.23;5.70;;;11.50;99.90;;;;;;4961241;29;20860;-84
2023/09/24 07:28:09;;;;;;;14.23;5.95;;;11.50;99.90;;;;;;4950015;28;20348;-85
2023/09/24 07:30:41;;;;;;;10.77;5.95;;;11.60;99.90;;;;;;4974986;28;20042;-85
2023/09/24 07:33:08;;;;;;;10.60;5.72;;;11.60;99.90;;;;;;4968523;28;20049;-84
2023/09/24 07:35:35;;;;;;;8.90;5.45;;;11.70;99.90;;;;;;4968838;28;20039;-85
2023/09/24 07:38:01;;;;;;;12.77;5.65;;;11.70;99.90;;;;;;4975181;28;20039;-87
2023/09/24 07:40:29;;;;;;;14.45;6.40;;;11.90;99.90;;;;;;4964799;28;20046;-88
2023/09/24 07:42:56;;;;;;;13.20;5.75;;;11.90;99.90;;;;;;4961242;29;20495;-87
2023/09/24 07:45:22;;;;;;;11.95;5.53;;;12.00;99.90;;;;;;4957995;29;20035;-87
2023/09/24 07:47:49;;;;;;;12.60;5.60;;;12.10;99.90;;;;;;4957848;29;20050;-86
2023/09/24 07:50:16;;;;;;;9.68;5.28;;;12.20;99.90;;;;;;4957584;29;20040;-86
2023/09/24 07:53:10;;;;;;;13.20;5.80;;;12.30;99.90;;;;;;4967583;29;20035;-86
2023/09/24 07:56:02;;;;;;;12.48;5.93;;;12.30;99.90;;;;;;4930123;29;20048;-88
2023/09/24 07:58:41;;;;;;;14.13;5.97;;;12.50;99.90;;;;;;4934057;29;20414;-87
2023/09/24 08:01:12;;;;;;;12.35;5.60;;;12.60;99.90;;;;;;4918017;29;20070;-86
2023/09/24 08:03:40;;;;;;;10.15;6.25;;;12.70;99.90;;;;;;4934239;29;20040;-86
2023/09/24 08:09:08;;;;;;;12.88;5.70;;;12.80;99.90;;;;;;4916338;29;20429;-86
2023/09/24 08:11:41;;;;;;;10.23;5.72;;;12.90;99.90;;;;;;4910308;29;20123;-88
2023/09/24 08:18:12;;;;;;;9.90;5.35;;;13.10;99.90;;;;;;4870029;29;20540;-87
2023/09/24 08:20:40;;;;;;;10.27;5.13;;;13.20;99.90;;;;;;4878096;29;20064;-87
2023/09/24 08:24:05;;;;;;;10.80;5.22;;;13.20;99.90;;;;;;4865199;29;20419;-87
2023/09/24 08:26:33;;;;;;;12.40;4.97;;;13.30;99.90;;;;;;4829299;29;20060;-87
2023/09/24 08:29:02;;;;;;;11.98;4.68;;;13.40;99.90;;;;;;4826192;29;20058;-87
2023/09/24 08:32:27;;;;;;;11.43;4.85;;;13.70;99.90;;;;;;4842934;29;20059;-86
2023/09/24 08:35:48;;;;;;;9.60;4.70;;;13.60;99.90;;;;;;4849771;29;20049;-85
2023/09/24 08:38:15;;;;;;;9.02;4.50;;;13.80;99.90;;;;;;4870655;29;20137;-87
2023/09/24 08:40:42;;;;;;;9.13;4.63;;;13.80;99.90;;;;;;4862283;29;20103;-86
2023/09/24 08:43:12;;;;;;;10.50;4.50;;;13.90;99.90;;;;;;4890544;29;20053;-86
2023/09/24 08:45:40;;;;;;;7.95;4.40;;;14.00;99.90;;;;;;4865512;29;20053;-86
2023/09/24 08:48:10;;;;;;;8.48;4.00;;;14.10;99.90;;;;;;4886253;29;20049;-86
2023/09/24 08:50:38;;;;;;;10.68;4.80;;;14.20;99.90;;;;;;4864314;29;20492;-86
2023/09/24 08:53:09;;;;;;;7.72;4.18;;;14.20;99.90;;;;;;4900317;29;20051;-86
2023/09/24 08:55:38;;;;;;;8.98;3.97;;;14.30;99.90;;;;;;4905130;29;20088;-85
2023/09/24 08:58:05;;;;;;;7.63;3.92;;;14.40;99.90;;;;;;4905724;29;20040;-86
2023/09/24 09:00:32;;;;;;;8.02;3.75;;;14.50;99.90;;;;;;4949423;28;20058;-86
2023/09/24 09:03:05;;;;;;;9.60;3.75;;;14.60;99.90;;;;;;4962450;29;20043;-86
2023/09/24 09:05:37;;;;;;;8.48;3.55;;;14.70;99.90;;;;;;4971754;28;20069;-86
2023/09/24 09:08:04;;;;;;;5.93;3.40;;;14.80;99.90;;;;;;4975121;28;20475;-86
2023/09/24 09:10:36;;;;;;;8.93;3.28;;;14.80;99.90;;;;;;4958193;29;20502;-86
2023/09/24 09:13:18;;;;;;;8.35;3.38;;;15.00;99.90;;;;;;4968932;29;20043;-86
2023/09/24 09:15:46;;;;;;;7.90;3.22;;;15.00;99.90;;;;;;4937305;29;20094;-86
2023/09/24 09:18:25;;;;;;;9.73;3.25;;;15.10;99.90;;;;;;4949996;29;20032;-85
2023/09/24 09:20:59;;;;;;;8.52;3.50;;;15.20;99.90;;;;;;4973257;28;20050;-86
2023/09/24 09:23:37;;;;;;;8.30;3.63;;;15.30;99.90;;;;;;4962724;28;20049;-86
2023/09/24 09:26:04;;;;;;;9.82;3.00;;;15.40;99.90;;;;;;4963173;29;20035;-86
2023/09/24 09:28:34;;;;;;;6.75;3.10;;;15.40;99.90;;;;;;4950575;29;20485;-86
2023/09/24 09:31:08;;;;;;;8.00;2.72;;;15.40;99.90;;;;;;4949538;28;20042;-86
2023/09/24 09:33:42;;;;;;;5.95;2.67;;;15.60;99.90;;;;;;4955461;29;20106;-86
2023/09/24 09:36:24;;;;;;;8.95;2.90;;;15.60;99.90;;;;;;4971112;28;20046;-85
2023/09/24 09:39:00;;;;;;;6.25;2.47;;;15.70;99.90;;;;;;4963813;29;20051;-86
2023/09/24 09:41:27;;;;;;;5.43;2.10;;;15.70;99.90;;;;;;4955753;29;20380;-86
2023/09/24 09:43:54;;;;;;;6.18;2.33;;;15.80;99.90;;;;;;4943104;29;20054;-86
2023/09/24 09:49:32;;;;;;;7.72;2.88;;;16.00;99.90;;;;;;4994573;28;20094;-86
2023/09/24 09:52:02;;;;;;;7.10;2.83;;;16.00;99.90;;;;;;4974635;28;20043;-87
2023/09/24 10:01:45;;;;;;;7.45;2.55;;;16.10;99.90;;;;;;4953535;29;20066;-86
2023/09/24 10:04:13;;;;;;;7.30;2.60;;;16.30;99.90;;;;;;4947961;29;20040;-86
2023/09/24 10:06:40;;;;;;;7.07;2.33;;;16.40;99.90;;;;;;4929144;29;20063;-86
2023/09/24 10:10:01;;;;;;;8.10;2.58;;;16.40;99.90;;;;;;4932381;29;20048;-85
2023/09/24 10:12:35;;;;;;;6.68;2.30;;;16.50;99.90;;;;;;4932825;29;20040;-87
2023/09/24 10:15:25;;;;;;;7.53;2.15;;;16.50;99.90;;;;;;4930195;29;20047;-87
2023/09/24 10:18:08;;;;;;;5.57;2.10;;;16.60;99.90;;;;;;4937863;29;20043;-87
2023/09/24 10:20:49;;;;;;;8.10;2.20;;;16.60;99.90;;;;;;4949290;29;20539;-87
2023/09/24 10:23:29;;;;;;;6.68;2.25;;;16.70;99.90;;;;;;4922796;29;20160;-87
2023/09/24 10:25:59;;;;;;;6.25;2.10;;;16.90;99.90;;;;;;4927927;29;20048;-87
2023/09/24 10:28:58;;;;;;;9.45;1.95;;;16.90;99.90;;;;;;4934774;29;20083;-86
2023/09/24 10:31:25;;;;;;;4.80;1.60;;;17.00;99.90;;;;;;4905667;29;20925;-86
2023/09/24 10:33:56;;;;;;;5.55;1.77;;;17.10;99.90;;;;;;4927710;29;20044;-87
2023/09/24 10:36:33;;;;;;;8.77;1.83;;;17.20;99.90;;;;;;4990609;28;20050;-84
2023/09/24 10:39:11;;;;;;;7.13;2.10;;;17.20;99.90;;;;;;4978025;28;20757;-84
2023/09/24 10:42:09;;;;;;;8.27;2.10;;;17.30;99.90;;;;;;4966574;28;20194;-83
2023/09/24 10:44:37;;;;;;;4.63;1.63;;;17.30;99.90;;;;;;4959334;29;20075;-79
2023/09/24 10:47:27;;;;;;;7.65;2.00;;;17.30;99.90;;;;;;4970762;29;20070;-79
2023/09/24 10:50:03;;;;;;;6.55;1.80;;;17.40;99.90;;;;;;4971976;29;20102;-86
2023/09/24 10:52:49;;;;;;;4.75;1.55;;;17.50;99.90;;;;;;4969869;29;20047;-86
2023/09/24 10:55:17;;;;;;;4.28;1.52;;;17.50;99.90;;;;;;4954794;28;20043;-86
2023/09/24 10:57:45;;;;;;;5.47;1.40;;;17.60;99.90;;;;;;4970275;29;20047;-86
2023/09/24 11:00:19;;;;;;;3.45;1.50;;;17.50;99.90;;;;;;4973333;28;20046;-85
2023/09/24 11:02:45;;;;;;;4.60;1.40;;;17.60;99.90;;;;;;4968181;29;20039;-85
2023/09/24 11:05:12;;;;;;;5.90;1.70;;;17.60;99.90;;;;;;4978017;28;20128;-85
2023/09/24 11:07:39;;;;;;;6.43;1.85;;;17.70;99.90;;;;;;4960385;29;20131;-83
2023/09/24 11:10:09;;;;;;;5.75;1.52;;;17.70;99.90;;;;;;4924190;29;20036;-89
2023/09/24 11:12:35;;;;;;;4.88;1.35;;;17.70;99.90;;;;;;4940208;29;20036;-88
2023/09/24 11:15:02;;;;;;;5.68;1.75;;;17.80;99.90;;;;;;4932203;29;20047;-88
2023/09/24 11:17:29;;;;;;;5.88;1.75;;;17.80;99.90;;;;;;4940410;29;20051;-90
2023/09/24 11:19:56;;;;;;;3.83;1.40;;;17.80;99.90;;;;;;4954782;29;20044;-88
2023/09/24 11:22:26;;;;;;;4.65;1.55;;;17.80;99.90;;;;;;4974172;29;20122;-91
2023/09/24 11:25:10;;;;;;;5.03;1.45;;;17.80;99.90;;;;;;4959262;29;20159;-89
2023/09/24 11:27:54;;;;;;;4.47;1.40;;;17.80;99.90;;;;;;4956940;29;20043;-89
2023/09/24 11:30:23;;;;;;;4.32;1.30;;;17.90;99.90;;;;;;4953247;29;20043;-90
2023/09/24 11:32:51;;;;;;;4.95;1.48;;;17.90;99.90;;;;;;4962193;29;20091;-90
2023/09/24 11:35:20;;;;;;;3.95;1.25;;;18.10;99.90;;;;;;4938819;29;20043;-90
2023/09/24 11:37:50;;;;;;;7.63;1.50;;;18.10;99.90;;;;;;4939924;29;20087;-88
2023/09/24 11:40:33;;;;;;;4.70;1.35;;;18.10;99.90;;;;;;4940068;29;20035;-90
2023/09/24 11:43:00;;;;;;;4.13;1.20;;;18.00;99.90;;;;;;4925003;29;20705;-90
2023/09/24 11:45:39;;;;;;;5.95;1.65;;;18.10;99.90;;;;;;4933818;29;20040;-88
2023/09/24 11:48:10;;;;;;;5.68;1.30;;;18.10;99.90;;;;;;4939902;29;20039;-87
2023/09/24 11:50:38;;;;;;;3.83;1.40;;;18.10;99.90;;;;;;4939843;29;20043;-88
2023/09/24 11:53:06;;;;;;;4.65;1.63;;;18.00;99.90;;;;;;4951761;29;20816;-90
2023/09/24 11:55:32;;;;;;;5.10;1.40;;;18.00;99.90;;;;;;4940230;29;20043;-88
2023/09/24 11:58:03;;;;;;;5.10;1.42;;;18.00;99.90;;;;;;4962995;29;20043;-88
2023/09/24 12:00:46;;;;;;;4.43;1.35;;;18.00;99.90;;;;;;4958655;29;20048;-88
2023/09/24 12:03:14;;;;;;;5.22;1.60;;;18.00;99.90;;;;;;4939272;29;20040;-86
2023/09/24 12:05:52;;;;;;;4.50;1.30;;;18.10;99.90;;;;;;4951418;29;20122;-87
2023/09/24 12:08:19;;;;;;;3.78;1.20;;;18.10;99.90;;;;;;4963671;28;20054;-88
2023/09/24 12:10:46;;;;;;;3.65;1.20;;;18.20;99.90;;;;;;4976830;28;20050;-91
2023/09/24 12:13:15;;;;;;;4.65;1.40;;;18.20;99.90;;;;;;4968595;29;20047;-90
2023/09/24 12:15:41;;;;;;;4.50;1.38;;;18.20;99.90;;;;;;4965589;29;20090;-90
2023/09/24 12:18:08;;;;;;;6.55;1.90;;;18.20;99.90;;;;;;4960796;29;20118;-90
2023/09/24 12:20:37;;;;;;;4.38;1.50;;;18.20;99.90;;;;;;4958464;28;20039;-89
2023/09/24 12:23:06;;;;;;;6.05;1.40;;;18.20;99.90;;;;;;4947066;29;20066;-90
2023/09/24 12:25:36;;;;;;;4.22;1.45;;;18.20;99.90;;;;;;4959421;29;20412;-90
2023/09/24 12:28:04;;;;;;;4.70;1.30;;;18.20;99.90;;;;;;4965948;28;20548;-90
2023/09/24 12:30:31;;;;;;;7.25;1.65;;;18.10;99.90;;;;;;4948157;29;20488;-90
2023/09/24 12:32:58;;;;;;;4.95;1.30;;;18.10;99.90;;;;;;4984310;28;20049;-90
2023/09/24 12:35:25;;;;;;;5.18;1.80;;;18.20;99.90;;;;;;4958592;29;20079;-90
2023/09/24 12:37:54;;;;;;;5.00;1.40;;;18.20;99.90;;;;;;4958169;28;20074;-86
2023/09/24 12:40:25;;;;;;;3.50;1.35;;;18.20;99.90;;;;;;4958321;29;20134;-90
2023/09/24 12:42:52;;;;;;;6.00;1.45;;;18.20;99.90;;;;;;4958810;28;20130;-89
2023/09/24 12:45:19;;;;;;;3.65;1.15;;;18.20;99.90;;;;;;4992720;28;20050;-89
2023/09/24 12:47:45;;;;;;;3.22;1.20;;;18.10;99.90;;;;;;4964593;28;20039;-89
2023/09/24 12:50:15;;;;;;;2.20;1.10;;;18.30;99.90;;;;;;4964533;29;20042;-90
2023/09/24 12:52:46;;;;;;;4.05;1.40;;;18.30;99.90;;;;;;4950746;29;20043;-90
2023/09/24 12:55:18;;;;;;;7.18;1.60;;;18.30;99.90;;;;;;4946460;29;20054;-89
2023/09/24 12:57:45;;;;;;;3.78;1.23;;;18.30;99.90;;;;;;4952800;29;20059;-91
2023/09/24 13:00:14;;;;;;;3.35;1.25;;;18.30;99.90;;;;;;4949208;28;20046;-89
2023/09/24 13:02:43;;;;;;;3.17;1.10;;;18.30;99.90;;;;;;4947527;29;20043;-89
2023/09/24 13:05:11;;;;;;;6.90;1.50;;;18.40;99.90;;;;;;4962415;29;20047;-89
2023/09/24 13:07:45;;;;;;;3.05;1.23;;;18.50;99.90;;;;;;4979796;28;20112;-89
2023/09/24 13:10:14;;;;;;;5.63;1.63;;;18.50;99.90;;;;;;4965130;28;20061;-89
2023/09/24 13:12:44;;;;;;;4.65;1.30;;;18.60;99.90;;;;;;4968134;28;20038;-89
2023/09/24 13:15:12;;;;;;;5.30;1.20;;;18.60;99.90;;;;;;4962396;28;20039;-90
2023/09/24 13:17:39;;;;;;;4.15;1.30;;;18.60;99.90;;;;;;4949023;28;20043;-90
2023/09/24 13:20:07;;;;;;;4.75;1.20;;;18.50;99.90;;;;;;4978985;28;20062;-88
2023/09/24 13:38:24;;;;;;;3.88;1.20;;;17.90;99.90;;;;;;4911439;29;20478;-93
2023/09/24 13:41:12;;;;;;;5.55;1.38;;;18.00;99.90;;;;;;4882642;29;20056;-89
2023/09/24 13:43:39;;;;;;;3.67;1.40;;;18.00;99.90;;;;;;4910769;29;20056;-89
2023/09/24 13:46:05;;;;;;;4.10;1.20;;;17.90;99.90;;;;;;4899236;29;20422;-90
2023/09/24 13:49:10;;;;;;;3.78;1.30;;;18.00;99.90;;;;;;4891777;29;20523;-92
2023/09/24 13:51:58;;;;;;;2.65;1.20;;;18.00;99.90;;;;;;4882114;29;20072;-93
2023/09/24 13:57:59;;;;;;;3.42;1.40;;;18.00;99.90;;;;;;4894792;29;20053;-92
2023/09/24 14:00:56;;;;;;;4.30;1.60;;;18.10;99.90;;;;;;4882921;29;20061;-92
2023/09/24 14:03:33;;;;;;;5.28;2.45;;;18.00;99.90;;;;;;4810292;30;20055;-91
2023/09/24 14:06:12;;;;;;;3.28;1.30;;;18.10;99.90;;;;;;4814644;29;20047;-92
2023/09/24 14:15:05;;;;;;;6.13;1.50;;;18.30;99.90;;;;;;4853341;29;20291;-91
2023/09/24 14:17:33;;;;;;;4.72;1.10;;;18.30;99.90;;;;;;4827851;29;20060;-89
2023/09/24 14:20:00;;;;;;;4.05;1.42;;;18.30;99.90;;;;;;4841851;29;20061;-89
2023/09/24 14:23:23;;;;;;;;;;;;;;;;;;;;;
2023/09/24 14:25:58;;;;;;;4.65;1.58;;;18.30;99.90;;;;;;4811230;29;20070;-89
2023/09/24 14:29:19;;;;;;;7.47;2.00;;;18.30;99.90;;;;;;4809425;29;20062;-88
2023/09/24 14:32:04;;;;;;;6.28;2.25;;;18.30;99.90;;;;;;4794462;29;20066;-90
2023/09/24 14:34:34;;;;;;;4.05;1.48;;;18.20;99.90;;;;;;4844423;29;20057;-86
2023/09/24 14:37:01;;;;;;;6.07;2.03;;;18.20;99.90;;;;;;4879321;29;20125;-85
2023/09/24 14:39:27;;;;;;;5.22;1.38;;;18.20;99.90;;;;;;4868300;29;20173;-89
2023/09/24 14:41:55;;;;;;;4.90;2.00;;;18.20;99.90;;;;;;4894313;29;20136;-89
2023/09/24 14:44:22;;;;;;;3.22;1.17;;;18.20;99.90;;;;;;4880130;29;20033;-90
2023/09/24 14:46:48;;;;;;;6.20;1.30;;;18.20;99.90;;;;;;4881635;29;20585;-90
2023/09/24 14:49:15;;;;;;;3.83;1.73;;;18.20;99.90;;;;;;4883945;29;20037;-89
2023/09/24 14:51:42;;;;;;;5.75;1.73;;;18.20;99.90;;;;;;4914138;29;20499;-89
2023/09/24 14:54:09;;;;;;;2.95;1.33;;;18.20;99.90;;;;;;4908006;29;20553;-89
2023/09/24 14:56:35;;;;;;;4.57;1.48;;;18.10;99.90;;;;;;4898457;29;20052;-89
2023/09/24 14:59:02;;;;;;;6.95;2.10;;;18.20;99.90;;;;;;4914289;29;20071;-91
2023/09/24 15:01:29;;;;;;;6.43;1.67;;;18.20;99.90;;;;;;4940217;29;20059;-89
2023/09/24 15:03:56;;;;;;;4.78;1.65;;;18.20;99.90;;;;;;4964025;28;20134;-89